Time;durP1;ratioP1;P1;durP2;ratioP2;P2;SDS_P1;SDS_P2;PMS_P1;PMS_P2;Temp;Humidity;BMP_temperature;BMP_pressure;BME280_temperature;BME280_humidity;BME280_pressure;Samples;Min_cycle;Max_cycle;Signal;HPM_P1;HPM_P2
2021/08/02 00:02:34;;;;;;;4.90;2.85;;;;;;;20.98;55.67;99411.47;4938953;29;20051;-84
2021/08/02 00:05:07;;;;;;;8.07;2.90;;;;;;;20.89;55.40;99403.53;4956348;29;20393;-84
2021/08/02 00:07:37;;;;;;;5.60;3.03;;;;;;;20.75;55.79;99404.16;4923154;29;20055;-84
2021/08/02 00:10:15;;;;;;;6.70;2.40;;;;;;;20.85;55.17;99411.94;4955632;29;20058;-84
2021/08/02 00:13:05;;;;;;;5.88;3.03;;;;;;;21.05;54.31;99423.91;4955966;28;20126;-86
2021/08/02 00:15:32;;;;;;;8.45;3.20;;;;;;;20.75;54.99;99416.56;4955418;29;20046;-84
2021/08/02 00:17:59;;;;;;;7.85;3.40;;;;;;;20.67;55.69;99425.34;4955608;29;20516;-85
2021/08/02 00:20:31;;;;;;;6.13;2.17;;;;;;;20.65;55.84;99427.28;4955350;29;20383;-85
2021/08/02 00:23:02;;;;;;;7.28;2.47;;;;;;;20.59;55.93;99423.47;4955209;29;20942;-84
2021/08/02 00:25:29;;;;;;;9.43;3.35;;;;;;;20.73;54.97;99416.72;4955451;29;20384;-84
2021/08/02 00:27:56;;;;;;;5.57;2.63;;;;;;;21.02;54.18;99418.94;4955168;29;20050;-85
2021/08/02 00:30:24;;;;;;;7.40;3.25;;;;;;;21.34;52.29;99415.50;4955252;29;20039;-84
2021/08/02 00:32:52;;;;;;;6.97;2.88;;;;;;;21.62;51.65;99431.06;4955103;29;20055;-84
2021/08/02 00:35:21;;;;;;;5.38;2.28;;;;;;;21.56;51.46;99421.13;4938254;29;20039;-86
2021/08/02 00:38:03;;;;;;;5.70;2.17;;;;;;;21.81;50.38;99417.44;4954763;29;20046;-87
2021/08/02 00:40:48;;;;;;;9.90;2.53;;;;;;;22.00;49.61;99418.06;4938316;29;20051;-86
2021/08/02 00:43:57;;;;;;;9.50;3.65;;;;;;;21.91;49.91;99417.25;4954979;29;20043;-84
2021/08/02 00:46:38;;;;;;;8.50;2.30;;;;;;;21.48;52.05;99413.19;4918816;29;20048;-86
2021/08/02 00:49:08;;;;;;;6.43;3.25;;;;;;;21.08;53.57;99415.63;4933241;29;20051;-83
2021/08/02 00:51:56;;;;;;;6.13;2.90;;;;;;;20.90;54.45;99410.47;4937792;29;20043;-83
2021/08/02 00:54:26;;;;;;;5.90;3.15;;;;;;;20.63;55.57;99408.94;4954180;28;20047;-83
2021/08/02 00:56:59;;;;;;;6.47;2.22;;;;;;;20.83;54.84;99404.19;4954892;29;20122;-83
2021/08/02 00:59:29;;;;;;;5.88;2.47;;;;;;;20.90;54.57;99405.19;4954932;29;20058;-83
2021/08/02 01:01:59;;;;;;;6.95;2.30;;;;;;;20.91;54.19;99406.81;4954826;29;20106;-83
2021/08/02 01:04:30;;;;;;;19.50;5.25;;;;;;;21.12;53.56;99405.53;4937286;29;20502;-83
2021/08/02 01:06:58;;;;;;;6.13;2.65;;;;;;;21.12;53.66;99405.53;4954458;29;20047;-83
2021/08/02 01:09:28;;;;;;;5.88;2.40;;;;;;;20.89;54.75;99400.88;4953511;29;20133;-82
2021/08/02 01:11:57;;;;;;;5.38;2.05;;;;;;;20.72;55.69;99401.84;4954273;29;20114;-81
2021/08/02 01:14:26;;;;;;;3.92;2.25;;;;;;;20.54;55.72;99409.88;4954545;29;20173;-81
2021/08/02 01:16:54;;;;;;;5.97;2.13;;;;;;;20.67;55.09;99404.97;4953954;29;20522;-81
2021/08/02 01:19:21;;;;;;;5.65;2.67;;;;;;;20.63;56.07;99419.53;4954400;29;20055;-85
2021/08/02 01:21:56;;;;;;;4.30;2.30;;;;;;;20.43;56.82;99420.75;4954379;29;20118;-85
2021/08/02 01:24:24;;;;;;;8.50;2.67;;;;;;;20.23;56.66;99422.78;4954502;29;20047;-86
2021/08/02 01:26:59;;;;;;;10.27;2.35;;;;;;;20.52;56.07;99430.41;4954041;29;20043;-84
2021/08/02 01:30:06;;;;;;;3.33;2.40;;;;;;;20.47;55.80;99422.13;4936945;29;20546;-83
2021/08/02 01:32:36;;;;;;;6.65;2.55;;;;;;;20.62;54.90;99427.63;4953776;29;20490;-82
2021/08/02 01:35:06;;;;;;;8.98;3.13;;;;;;;20.72;54.26;99422.16;4935017;29;20118;-82
2021/08/02 01:37:33;;;;;;;6.30;2.58;;;;;;;20.82;53.96;99422.84;4934299;29;20048;-84
2021/08/02 01:40:02;;;;;;;5.85;2.50;;;;;;;20.91;53.67;99428.03;4933721;29;20122;-83
2021/08/02 01:42:36;;;;;;;4.28;2.28;;;;;;;20.53;55.83;99440.00;4935072;29;20495;-85
2021/08/02 01:45:07;;;;;;;8.27;3.40;;;;;;;20.80;54.54;99435.44;4934789;29;20088;-86
2021/08/02 01:47:40;;;;;;;5.85;2.80;;;;;;;20.88;53.72;99436.31;4935042;29;20216;-85
2021/08/02 01:50:32;;;;;;;7.28;2.72;;;;;;;21.06;53.01;99436.16;4917382;29;20056;-85
2021/08/02 01:53:25;;;;;;;5.30;1.92;;;;;;;21.17;52.55;99442.97;4933719;29;20056;-86
2021/08/02 01:56:04;;;;;;;7.05;2.58;;;;;;;20.91;53.53;99457.16;4935708;29;20488;-86
2021/08/02 01:58:40;;;;;;;6.20;2.00;;;;;;;20.65;54.37;99454.59;4917866;29;20103;-85
2021/08/02 02:01:24;;;;;;;10.15;2.70;;;;;;;20.66;54.65;99460.72;4933250;29;20499;-86
2021/08/02 02:03:56;;;;;;;5.50;2.78;;;;;;;20.78;53.86;99462.09;4933768;29;20079;-85
2021/08/02 02:06:34;;;;;;;6.80;2.40;;;;;;;20.82;53.52;99454.66;4936341;29;20563;-85
2021/08/02 02:09:09;;;;;;;4.60;2.88;;;;;;;21.03;52.81;99448.91;4939167;29;20054;-85
2021/08/02 02:11:50;;;;;;;;;;;;;;;20.87;53.28;99450.53;4937619;29;20075;-85
2021/08/02 02:14:33;;;;;;;5.32;2.35;;;;;;;20.83;53.33;99451.84;4921753;29;19969;-85
2021/08/02 02:17:02;;;;;;;7.35;3.10;;;;;;;20.86;53.92;99440.09;4921280;29;20054;-85
2021/08/02 02:19:33;;;;;;;7.95;3.00;;;;;;;20.74;53.57;99442.22;4921438;29;20111;-84
2021/08/02 02:22:10;;;;;;;4.93;2.88;;;;;;;20.58;53.83;99440.34;4938235;29;20052;-85
2021/08/02 02:24:39;;;;;;;5.13;2.25;;;;;;;20.60;54.31;99445.47;4938851;29;20114;-84
2021/08/02 02:27:11;;;;;;;6.63;2.10;;;;;;;20.40;55.92;99451.03;4937129;29;20495;-83
2021/08/02 02:29:44;;;;;;;5.30;2.23;;;;;;;20.35;55.53;99455.13;4921529;29;20078;-83
2021/08/02 02:32:12;;;;;;;5.70;3.17;;;;;;;20.45;54.64;99449.69;4938426;29;20487;-85
2021/08/02 02:34:40;;;;;;;6.95;2.63;;;;;;;20.53;53.84;99444.47;4937987;29;20122;-84
2021/08/02 02:37:08;;;;;;;8.27;3.03;;;;;;;20.54;53.69;99457.53;4938367;29;20091;-83
2021/08/02 02:39:37;;;;;;;4.05;2.25;;;;;;;20.55;54.04;99453.06;4937812;29;20052;-83
2021/08/02 02:42:07;;;;;;;6.57;2.40;;;;;;;20.30;54.95;99450.31;4936990;29;20075;-84
2021/08/02 02:44:37;;;;;;;5.65;2.35;;;;;;;20.34;54.78;99456.09;4937645;29;20047;-84
2021/08/02 02:47:06;;;;;;;9.65;2.55;;;;;;;20.25;55.15;99451.78;4938234;29;20044;-85
2021/08/02 02:49:35;;;;;;;6.15;3.00;;;;;;;20.26;55.32;99453.41;4937508;29;20056;-83
2021/08/02 02:52:05;;;;;;;8.18;2.38;;;;;;;19.83;56.82;99463.09;4938128;29;20054;-85
2021/08/02 02:54:33;;;;;;;4.35;2.75;;;;;;;19.88;57.20;99466.94;4920975;29;20054;-84
2021/08/02 02:57:03;;;;;;;4.57;2.25;;;;;;;19.73;57.33;99459.72;4920542;29;20499;-84
2021/08/02 02:59:32;;;;;;;2.58;1.80;;;;;;;19.82;57.06;99462.25;4920803;29;20550;-82
2021/08/02 03:02:00;;;;;;;4.45;2.15;;;;;;;19.72;57.20;99450.94;4937185;29;20068;-84
2021/08/02 03:04:34;;;;;;;7.15;2.53;;;;;;;19.75;57.02;99463.03;4936271;29;20059;-85
2021/08/02 03:07:02;;;;;;;7.75;2.53;;;;;;;19.70;57.40;99458.19;4934919;29;20130;-85
2021/08/02 03:09:35;;;;;;;5.88;2.40;;;;;;;19.78;57.07;99455.63;4939073;29;20047;-84
2021/08/02 03:12:06;;;;;;;5.72;2.25;;;;;;;19.89;55.97;99467.75;4939219;29;20082;-85
2021/08/02 03:14:33;;;;;;;4.22;2.35;;;;;;;20.25;54.00;99470.28;4956517;29;20042;-85
2021/08/02 03:17:00;;;;;;;5.53;2.33;;;;;;;20.50;54.06;99471.25;4956340;28;20043;-85
2021/08/02 03:19:27;;;;;;;6.82;2.30;;;;;;;20.11;55.32;99483.09;4956517;29;20469;-84
2021/08/02 03:21:54;;;;;;;8.63;2.55;;;;;;;20.03;55.51;99491.00;4939568;29;20139;-84
2021/08/02 03:24:30;;;;;;;5.82;2.13;;;;;;;19.78;56.35;99484.72;4938827;29;20047;-85
2021/08/02 03:27:09;;;;;;;5.38;1.92;;;;;;;19.92;55.14;99487.75;4956584;29;20039;-85
2021/08/02 03:29:42;;;;;;;6.13;2.55;;;;;;;20.17;55.29;99502.81;4956550;29;20449;-85
2021/08/02 03:32:12;;;;;;;8.10;2.92;;;;;;;20.91;54.59;99499.53;4956701;29;20442;-85
2021/08/02 03:34:49;;;;;;;5.97;2.90;;;;;;;20.48;55.02;99505.00;4956011;29;20070;-86
2021/08/02 03:37:20;;;;;;;6.82;3.13;;;;;;;19.89;57.37;99504.78;4939350;29;20390;-85
2021/08/02 03:39:48;;;;;;;10.68;2.95;;;;;;;19.91;57.20;99518.66;4955988;29;20494;-86
2021/08/02 03:42:16;;;;;;;5.00;2.40;;;;;;;19.98;57.40;99516.25;4956321;29;20039;-85
2021/08/02 03:44:45;;;;;;;4.80;3.72;;;;;;;19.88;58.05;99522.47;4955543;29;20043;-85
2021/08/02 03:47:12;;;;;;;8.48;2.47;;;;;;;19.71;58.48;99523.34;4939188;29;20165;-86
2021/08/02 03:49:40;;;;;;;7.50;2.90;;;;;;;19.47;59.25;99529.19;4938785;29;20079;-86
2021/08/02 03:52:07;;;;;;;4.30;2.63;;;;;;;19.60;59.13;99521.75;4956110;29;20406;-86
2021/08/02 03:54:34;;;;;;;6.88;2.67;;;;;;;19.51;59.54;99525.25;4956045;29;20051;-88
2021/08/02 03:57:02;;;;;;;7.05;2.65;;;;;;;19.31;59.90;99524.56;4938947;29;20506;-87
2021/08/02 03:59:29;;;;;;;5.43;2.15;;;;;;;19.34;59.87;99526.94;4956437;29;20090;-86
2021/08/02 04:01:56;;;;;;;5.07;3.10;;;;;;;19.34;59.01;99524.28;4955401;28;20130;-86
2021/08/02 04:04:23;;;;;;;7.30;2.60;;;;;;;19.43;58.78;99524.34;4955805;29;20049;-85
2021/08/02 04:06:50;;;;;;;9.90;3.10;;;;;;;19.31;58.77;99521.94;4955462;29;20142;-86
2021/08/02 04:09:17;;;;;;;7.15;3.90;;;;;;;19.28;58.93;99538.09;4938729;29;20048;-87
2021/08/02 04:11:45;;;;;;;3.78;2.40;;;;;;;19.36;58.23;99524.13;4922541;29;20087;-86
2021/08/02 04:14:13;;;;;;;7.43;2.53;;;;;;;19.43;57.72;99529.63;4955453;28;20045;-87
2021/08/02 04:16:41;;;;;;;5.38;2.63;;;;;;;19.41;58.28;99531.59;4922875;29;20130;-87
2021/08/02 04:19:08;;;;;;;4.38;1.90;;;;;;;19.25;58.85;99537.56;4938673;29;20051;-87
2021/08/02 04:21:35;;;;;;;9.43;2.97;;;;;;;19.33;58.22;99541.13;4955568;28;20376;-85
2021/08/02 04:24:03;;;;;;;5.60;2.58;;;;;;;19.65;57.01;99544.25;4955530;29;20044;-85
2021/08/02 04:26:30;;;;;;;5.13;2.20;;;;;;;19.77;56.62;99543.03;4951034;28;20135;-91
2021/08/02 04:28:57;;;;;;;6.88;2.20;;;;;;;19.61;56.70;99530.50;4949008;28;20063;-90
2021/08/02 04:31:26;;;;;;;7.22;2.40;;;;;;;19.77;56.79;99541.22;4947940;28;20043;-91
2021/08/02 04:33:53;;;;;;;7.20;3.33;;;;;;;19.68;56.55;99539.50;4929739;28;20039;-91
2021/08/02 04:36:21;;;;;;;8.40;2.55;;;;;;;19.54;57.87;99548.75;4949805;28;20099;-90
2021/08/02 04:38:48;;;;;;;7.25;2.20;;;;;;;19.18;60.29;99555.00;4935483;28;20050;-90
2021/08/02 04:41:16;;;;;;;5.13;3.47;;;;;;;19.66;58.13;99557.34;4951853;28;20056;-90
2021/08/02 04:43:43;;;;;;;4.50;2.75;;;;;;;19.73;57.87;99547.78;4950625;28;20036;-90
2021/08/02 04:46:10;;;;;;;4.45;2.17;;;;;;;19.55;57.98;99546.94;4948472;28;20067;-89
2021/08/02 04:48:37;;;;;;;5.15;2.70;;;;;;;20.03;57.57;99558.97;4933920;28;20388;-90
2021/08/02 04:51:04;;;;;;;6.60;2.95;;;;;;;19.89;59.16;99563.81;4952334;28;20499;-89
2021/08/02 04:53:31;;;;;;;6.60;2.97;;;;;;;20.05;58.79;99564.91;4941759;28;20051;-89
2021/08/02 04:55:58;;;;;;;8.15;2.88;;;;;;;20.19;57.25;99560.88;4936340;28;20044;-90
2021/08/02 04:58:25;;;;;;;5.03;2.88;;;;;;;20.42;56.15;99568.16;4948362;28;20039;-90
2021/08/02 05:00:52;;;;;;;8.48;2.38;;;;;;;20.60;54.91;99572.56;4944760;28;20135;-90
2021/08/02 05:03:19;;;;;;;7.13;3.40;;;;;;;20.68;55.51;99577.94;4950661;28;20056;-89
2021/08/02 05:05:52;;;;;;;10.50;3.53;;;;;;;20.80;56.34;99586.41;4954230;28;20114;-88
2021/08/02 05:08:20;;;;;;;6.63;3.10;;;;;;;20.89;55.57;99574.88;4953890;29;20051;-87
2021/08/02 05:10:47;;;;;;;6.45;3.03;;;;;;;21.07;54.78;99580.09;4937142;29;20047;-88
2021/08/02 05:13:15;;;;;;;5.00;2.72;;;;;;;20.95;55.73;99581.38;4954173;29;20066;-89
2021/08/02 05:15:41;;;;;;;5.13;3.28;;;;;;;20.96;55.80;99585.66;4953981;29;20043;-90
2021/08/02 05:18:08;;;;;;;9.10;3.67;;;;;;;21.28;55.86;99596.38;4947404;29;20487;-89
2021/08/02 05:20:35;;;;;;;7.35;3.90;;;;;;;21.60;54.68;99594.84;4951884;29;20043;-88
2021/08/02 05:23:02;;;;;;;9.77;3.70;;;;;;;21.84;52.50;99591.38;4954252;29;20058;-87
2021/08/02 05:25:29;;;;;;;11.77;4.30;;;;;;;21.87;52.21;99593.69;4936079;29;20125;-86
2021/08/02 05:27:56;;;;;;;9.15;4.97;;;;;;;21.93;53.28;99596.50;4955179;29;20098;-88
2021/08/02 05:30:23;;;;;;;5.72;4.03;;;;;;;21.97;53.18;99599.69;4954185;29;20055;-86
2021/08/02 05:32:49;;;;;;;6.25;3.92;;;;;;;22.48;52.63;99601.16;4954453;29;20046;-84
2021/08/02 05:35:16;;;;;;;9.57;4.03;;;;;;;22.39;52.79;99612.78;4953794;28;20039;-84
2021/08/02 05:37:44;;;;;;;10.52;3.67;;;;;;;22.88;50.71;99610.06;4949937;28;20047;-91
2021/08/02 05:40:11;;;;;;;7.13;3.78;;;;;;;23.00;49.81;99613.16;4945015;28;20134;-90
2021/08/02 05:42:38;;;;;;;5.90;3.25;;;;;;;22.99;51.05;99612.34;4949088;29;20045;-90
2021/08/02 05:45:08;;;;;;;7.78;3.00;;;;;;;23.31;49.51;99607.06;4954448;28;20039;-90
2021/08/02 05:47:35;;;;;;;8.90;3.20;;;;;;;23.21;50.20;99609.91;4951999;29;20098;-91
2021/08/02 05:50:03;;;;;;;9.32;3.00;;;;;;;23.37;50.00;99609.84;4953349;29;20051;-84
2021/08/02 05:52:30;;;;;;;8.98;3.35;;;;;;;23.39;50.84;99617.66;4934637;29;20035;-87
2021/08/02 05:54:57;;;;;;;7.18;3.10;;;;;;;23.88;49.17;99631.50;4951828;29;20522;-80
2021/08/02 05:57:24;;;;;;;7.28;3.35;;;;;;;23.64;49.65;99636.97;4950847;29;20051;-84
2021/08/02 05:59:53;;;;;;;6.63;2.45;;;;;;;23.84;48.78;99645.34;4933165;28;20043;-85
2021/08/02 06:02:20;;;;;;;6.88;3.42;;;;;;;24.05;47.57;99641.03;4953365;29;20133;-83
2021/08/02 06:04:47;;;;;;;4.30;3.17;;;;;;;24.15;48.31;99648.78;4952131;29;20047;-85
2021/08/02 06:07:14;;;;;;;9.10;2.88;;;;;;;24.15;48.09;99640.78;4952774;29;20047;-84
2021/08/02 06:09:41;;;;;;;10.38;3.60;;;;;;;24.28;48.54;99646.31;4952510;29;20058;-83
2021/08/02 06:12:09;;;;;;;6.20;3.42;;;;;;;23.63;51.25;99649.47;4935132;29;20036;-84
2021/08/02 06:14:37;;;;;;;12.13;4.45;;;;;;;23.10;52.89;99644.88;4934488;28;20054;-81
2021/08/02 06:17:04;;;;;;;6.80;3.38;;;;;;;23.37;52.04;99647.06;4951269;28;20066;-85
2021/08/02 06:19:32;;;;;;;10.43;3.50;;;;;;;23.25;51.04;99648.47;4952522;28;20079;-83
2021/08/02 06:21:59;;;;;;;8.88;3.10;;;;;;;23.02;50.97;99659.03;4952754;28;20035;-86
2021/08/02 06:24:26;;;;;;;6.35;3.53;;;;;;;23.37;51.61;99662.19;4952253;28;20130;-83
2021/08/02 06:26:52;;;;;;;12.80;4.22;;;;;;;23.34;52.28;99674.03;4951819;28;20051;-85
2021/08/02 06:29:20;;;;;;;12.82;3.97;;;;;;;23.49;51.42;99671.47;4952573;28;20044;-86
2021/08/02 06:31:47;;;;;;;9.93;3.38;;;;;;;23.23;51.34;99666.44;4952508;28;20564;-85
2021/08/02 06:34:14;;;;;;;10.93;3.15;;;;;;;23.43;50.29;99662.31;4951221;28;20043;-83
2021/08/02 06:36:40;;;;;;;8.90;2.30;;;;;;;23.19;50.19;99662.44;4931645;28;20047;-85
2021/08/02 06:39:07;;;;;;;7.13;2.63;;;;;;;23.13;50.37;99657.81;4951152;28;20039;-84
2021/08/02 06:41:34;;;;;;;14.32;3.28;;;;;;;23.87;49.20;99667.13;4935347;29;20135;-84
2021/08/02 06:44:01;;;;;;;8.15;2.70;;;;;;;23.14;50.80;99672.78;4952507;28;20054;-84
2021/08/02 06:46:28;;;;;;;7.55;2.55;;;;;;;23.58;49.58;99670.41;4935610;29;20043;-85
2021/08/02 06:48:55;;;;;;;5.97;2.42;;;;;;;23.50;49.54;99668.63;4952840;28;20583;-85
2021/08/02 06:51:22;;;;;;;5.45;2.33;;;;;;;23.76;49.41;99670.19;4936397;28;20071;-83
2021/08/02 06:53:49;;;;;;;11.20;2.97;;;;;;;24.11;49.45;99674.09;4937723;28;20035;-89
2021/08/02 06:56:16;;;;;;;17.88;3.63;;;;;;;24.04;49.69;99665.19;4955613;28;20129;-87
2021/08/02 06:58:43;;;;;;;11.95;3.38;;;;;;;24.17;49.06;99667.22;4938574;29;20047;-82
2021/08/02 07:01:10;;;;;;;13.40;3.15;;;;;;;24.15;49.74;99679.91;4956332;28;20107;-87
2021/08/02 07:03:37;;;;;;;6.20;2.72;;;;;;;24.02;48.45;99684.00;4955884;29;20047;-87
2021/08/02 07:06:04;;;;;;;12.25;3.50;;;;;;;24.01;49.40;99682.31;4938922;29;20039;-80
2021/08/02 07:08:31;;;;;;;9.68;2.80;;;;;;;24.34;49.29;99684.72;4937963;29;20055;-79
2021/08/02 07:10:58;;;;;;;5.95;2.88;;;;;;;24.14;50.75;99691.56;4956113;28;20049;-80
2021/08/02 07:13:25;;;;;;;16.63;4.07;;;;;;;24.12;50.71;99696.22;4938744;29;20043;-78
2021/08/02 07:15:52;;;;;;;13.32;3.78;;;;;;;23.96;49.77;99687.34;4954533;28;20391;-81
2021/08/02 07:18:21;;;;;;;5.53;2.58;;;;;;;24.13;50.04;99687.22;4955512;29;20075;-81
2021/08/02 07:20:51;;;;;;;10.32;3.00;;;;;;;24.38;49.45;99688.72;4954532;28;20039;-80
2021/08/02 07:23:17;;;;;;;8.02;3.28;;;;;;;24.46;49.04;99679.84;4932971;28;20044;-82
2021/08/02 07:25:45;;;;;;;9.25;2.80;;;;;;;24.65;47.87;99681.16;4951904;29;20348;-78
2021/08/02 07:28:12;;;;;;;7.05;3.63;;;;;;;24.49;49.06;99677.63;4952071;28;20047;-80
2021/08/02 07:30:42;;;;;;;8.18;3.38;;;;;;;24.06;50.04;99679.13;4952754;29;20441;-80
2021/08/02 07:33:09;;;;;;;6.65;3.45;;;;;;;24.15;51.09;99675.41;4951596;28;20046;-82
2021/08/02 07:35:35;;;;;;;6.45;3.40;;;;;;;24.03;51.76;99684.81;4935598;29;20502;-81
2021/08/02 07:38:02;;;;;;;11.57;3.83;;;;;;;24.12;51.38;99680.25;4952444;29;20063;-82
2021/08/02 07:40:29;;;;;;;8.10;3.08;;;;;;;23.98;49.40;99677.38;4950898;28;20043;-82
2021/08/02 07:42:56;;;;;;;7.30;3.08;;;;;;;24.39;49.93;99684.22;4951670;28;20043;-79
2021/08/02 07:45:23;;;;;;;5.38;3.58;;;;;;;24.51;50.84;99682.81;4952711;29;20051;-80
2021/08/02 07:47:49;;;;;;;5.60;3.47;;;;;;;24.08;50.81;99686.97;4950985;28;20035;-80
2021/08/02 07:50:16;;;;;;;8.15;3.00;;;;;;;23.79;49.06;99680.47;4947876;28;20039;-82
2021/08/02 07:52:44;;;;;;;10.32;3.10;;;;;;;24.35;48.10;99686.44;4945340;28;20108;-79
2021/08/02 07:55:12;;;;;;;8.85;3.30;;;;;;;24.27;48.36;99681.13;4948732;28;20059;-77
2021/08/02 07:57:39;;;;;;;10.43;4.82;;;;;;;24.35;48.24;99699.75;4949409;28;20039;-78
2021/08/02 08:00:08;;;;;;;7.28;3.47;;;;;;;24.08;50.05;99686.97;4946603;28;20055;-80
2021/08/02 08:02:38;;;;;;;5.15;2.75;;;;;;;24.58;48.79;99689.06;4947221;28;20090;-78
2021/08/02 08:05:06;;;;;;;18.10;4.35;;;;;;;24.41;48.78;99695.56;4952710;29;20138;-80
2021/08/02 08:07:52;;;;;;;12.82;4.50;;;;;;;24.61;48.54;99693.19;4951553;28;20039;-78
2021/08/02 08:10:21;;;;;;;6.00;3.08;;;;;;;24.28;49.66;99694.25;4951992;28;20533;-81
2021/08/02 08:12:49;;;;;;;5.30;2.90;;;;;;;24.31;49.74;99690.44;4952135;28;20039;-79
2021/08/02 08:15:18;;;;;;;6.47;4.10;;;;;;;24.58;49.08;99698.91;4951425;28;20047;-79
2021/08/02 08:17:45;;;;;;;7.38;3.63;;;;;;;24.13;49.25;99689.88;4951441;28;20111;-81
2021/08/02 08:20:14;;;;;;;8.65;2.53;;;;;;;24.63;48.53;99692.00;4952360;28;20047;-81
2021/08/02 08:22:41;;;;;;;9.50;3.58;;;;;;;24.78;48.39;99700.03;4949509;28;20090;-80
2021/08/02 08:25:10;;;;;;;11.00;4.50;;;;;;;24.52;48.89;99695.94;4952563;29;20047;-85
2021/08/02 08:27:37;;;;;;;8.82;3.50;;;;;;;24.44;49.24;99703.16;4948629;28;20043;-81
2021/08/02 08:30:06;;;;;;;8.25;4.28;;;;;;;24.40;49.21;99697.38;4951295;29;20055;-80
2021/08/02 08:32:33;;;;;;;10.15;4.25;;;;;;;24.29;49.92;99701.28;4950206;29;20039;-81
2021/08/02 08:34:59;;;;;;;14.18;3.78;;;;;;;24.55;48.87;99695.59;4949779;28;20043;-78
2021/08/02 08:37:30;;;;;;;10.30;4.22;;;;;;;24.67;49.00;99689.81;4941402;29;20439;-79
2021/08/02 08:39:57;;;;;;;8.07;3.63;;;;;;;24.50;49.62;99697.97;4948055;28;20131;-79
2021/08/02 08:42:23;;;;;;;4.90;3.67;;;;;;;24.58;49.10;99688.25;4951457;29;20392;-80
2021/08/02 08:44:50;;;;;;;8.32;3.53;;;;;;;24.67;48.95;99687.16;4948097;28;20047;-78
2021/08/02 08:47:17;;;;;;;13.07;4.55;;;;;;;24.80;48.62;99687.34;4951697;28;20062;-78
2021/08/02 08:49:44;;;;;;;6.88;2.92;;;;;;;24.65;48.49;99695.31;4951286;29;20035;-79
2021/08/02 08:52:14;;;;;;;9.63;3.35;;;;;;;24.92;47.78;99685.06;4947770;28;20049;-79
2021/08/02 08:54:42;;;;;;;5.18;4.25;;;;;;;25.08;47.61;99679.56;4948796;28;20046;-78
2021/08/02 08:57:13;;;;;;;7.80;3.85;;;;;;;24.54;49.60;99682.44;4950719;29;20043;-78
2021/08/02 08:59:51;;;;;;;6.28;3.55;;;;;;;24.80;49.51;99692.69;4948056;28;20051;-78
2021/08/02 09:02:29;;;;;;;7.53;4.85;;;;;;;24.77;49.71;99693.88;4951845;29;20515;-78
2021/08/02 09:05:00;;;;;;;6.50;4.45;;;;;;;25.00;48.69;99693.81;4949441;29;20047;-80
2021/08/02 09:07:38;;;;;;;9.88;5.07;;;;;;;24.90;48.81;99687.91;4930924;29;20058;-78
2021/08/02 09:10:11;;;;;;;7.68;3.72;;;;;;;25.17;47.94;99683.00;4939777;28;20043;-79
2021/08/02 09:12:58;;;;;;;6.85;3.50;;;;;;;25.38;47.40;99691.06;4946467;28;20039;-80
2021/08/02 09:15:34;;;;;;;7.90;2.85;;;;;;;25.40;47.41;99686.38;4944648;28;20047;-80
2021/08/02 09:18:04;;;;;;;9.15;3.60;;;;;;;25.43;47.46;99678.00;4945162;28;20452;-79
2021/08/02 09:20:31;;;;;;;9.27;3.63;;;;;;;25.33;47.78;99677.47;4949985;29;20051;-78
2021/08/02 09:23:14;;;;;;;6.28;3.13;;;;;;;25.06;47.96;99674.44;4948038;28;20051;-78
2021/08/02 09:25:54;;;;;;;8.43;3.63;;;;;;;25.44;47.17;99681.50;4940598;28;20047;-76
2021/08/02 09:28:23;;;;;;;11.07;4.10;;;;;;;25.34;47.14;99679.94;4940953;28;20035;-78
2021/08/02 09:30:59;;;;;;;6.60;3.63;;;;;;;25.41;47.18;99669.38;4939567;28;20035;-78
2021/08/02 09:33:31;;;;;;;5.70;2.97;;;;;;;25.60;46.74;99673.28;4938021;28;20040;-79
2021/08/02 09:36:01;;;;;;;6.68;2.97;;;;;;;25.80;44.92;99669.00;4943094;28;20101;-77
2021/08/02 09:38:28;;;;;;;5.95;3.55;;;;;;;25.71;44.97;99671.94;4940719;28;20131;-78
2021/08/02 09:40:56;;;;;;;5.30;2.38;;;;;;;25.82;44.13;99671.50;4938931;28;20048;-78
2021/08/02 09:43:27;;;;;;;37.60;3.38;;;;;;;25.85;44.87;99671.94;4942028;28;20058;-78
2021/08/02 09:46:15;;;;;;;6.65;2.70;;;;;;;25.91;44.57;99669.53;4939697;28;20406;-79
2021/08/02 09:48:44;;;;;;;8.40;2.95;;;;;;;25.82;45.31;99668.81;4940377;28;20039;-79
2021/08/02 09:51:19;;;;;;;9.93;3.33;;;;;;;25.82;44.81;99672.31;4938660;28;20043;-79
2021/08/02 09:53:47;;;;;;;7.30;3.83;;;;;;;26.08;44.80;99677.09;4941640;28;20103;-77
2021/08/02 09:56:17;;;;;;;6.75;3.50;;;;;;;26.12;44.54;99681.06;4940818;28;20496;-79
2021/08/02 09:59:08;;;;;;;9.38;3.85;;;;;;;26.13;45.05;99677.34;4939231;28;20529;-79
2021/08/02 10:01:36;;;;;;;9.35;3.42;;;;;;;26.24;44.09;99677.88;4938643;28;20380;-77
2021/08/02 10:04:05;;;;;;;11.98;3.25;;;;;;;26.29;43.93;99683.47;4940614;28;20128;-77
2021/08/02 10:06:34;;;;;;;8.48;3.28;;;;;;;26.23;44.68;99679.72;4940643;28;20134;-78
2021/08/02 10:09:02;;;;;;;7.05;3.55;;;;;;;26.05;44.56;99682.84;4951764;29;20046;-76
2021/08/02 10:11:32;;;;;;;11.95;3.58;;;;;;;26.26;44.67;99694.50;4952086;29;20058;-76
2021/08/02 10:14:00;;;;;;;10.57;3.05;;;;;;;26.02;43.60;99688.53;4940235;28;20134;-78
2021/08/02 10:16:29;;;;;;;8.40;2.42;;;;;;;26.13;43.21;99679.19;4937704;28;20035;-78
2021/08/02 10:19:07;;;;;;;4.75;2.33;;;;;;;26.07;42.61;99686.13;4943897;28;20414;-78
2021/08/02 10:21:44;;;;;;;11.82;3.05;;;;;;;26.19;40.97;99677.59;4951103;29;20047;-78
2021/08/02 10:24:15;;;;;;;4.50;2.05;;;;;;;26.09;41.39;99675.25;4950536;29;20088;-79
2021/08/02 10:26:56;;;;;;;4.47;1.95;;;;;;;26.12;40.43;99685.56;4935768;29;20122;-77
2021/08/02 10:29:24;;;;;;;5.00;2.28;;;;;;;26.53;40.77;99685.75;4954874;29;20057;-78
2021/08/02 10:31:53;;;;;;;4.97;1.75;;;;;;;26.66;40.76;99679.69;4955164;29;20122;-78
2021/08/02 10:34:21;;;;;;;5.60;1.98;;;;;;;26.78;39.87;99679.97;4937648;29;20526;-77
2021/08/02 10:37:02;;;;;;;2.90;1.52;;;;;;;26.73;39.47;99679.72;4955861;29;20053;-78
2021/08/02 10:39:34;;;;;;;3.70;1.50;;;;;;;26.89;40.92;99679.41;4952886;29;20035;-78
2021/08/02 10:42:08;;;;;;;4.28;1.63;;;;;;;26.78;39.40;99671.94;4949479;28;20066;-77
2021/08/02 10:44:57;;;;;;;4.18;2.15;;;;;;;26.94;39.01;99673.47;4946234;28;20047;-77
2021/08/02 10:47:37;;;;;;;4.15;2.55;;;;;;;27.06;39.22;99678.09;4942926;28;20039;-78
2021/08/02 10:50:06;;;;;;;4.97;1.67;;;;;;;27.09;39.51;99683.06;4941670;28;20043;-76
2021/08/02 10:52:33;;;;;;;5.65;1.52;;;;;;;27.10;39.13;99676.69;4943987;28;20047;-76
2021/08/02 10:55:11;;;;;;;5.10;1.40;;;;;;;27.24;40.13;99677.59;4942714;28;20050;-78
2021/08/02 10:57:38;;;;;;;6.25;2.17;;;;;;;27.22;39.99;99679.66;4940674;28;20131;-79
2021/08/02 11:00:19;;;;;;;4.75;1.77;;;;;;;27.38;38.98;99678.50;4943950;28;20494;-78
2021/08/02 11:02:57;;;;;;;4.13;1.63;;;;;;;27.05;39.91;99676.44;4939768;28;20483;-79
2021/08/02 11:05:30;;;;;;;5.45;2.08;;;;;;;27.41;39.18;99678.09;4939916;28;20513;-76
2021/08/02 11:08:07;;;;;;;5.25;1.38;;;;;;;27.06;38.16;99674.56;4943904;28;20065;-78
2021/08/02 11:10:34;;;;;;;4.82;1.55;;;;;;;27.09;38.75;99674.22;4935160;28;20468;-77
2021/08/02 11:13:26;;;;;;;2.70;1.40;;;;;;;27.33;38.78;99660.34;4942104;28;20034;-77
2021/08/02 11:15:53;;;;;;;7.50;1.95;;;;;;;27.50;38.27;99660.00;4943354;28;20060;-78
2021/08/02 11:18:28;;;;;;;4.22;1.77;;;;;;;27.42;38.38;99658.31;4951417;28;20066;-78
2021/08/02 11:20:57;;;;;;;7.65;1.67;;;;;;;27.46;37.91;99648.88;4950103;28;20406;-76
2021/08/02 11:23:37;;;;;;;7.03;2.05;;;;;;;27.61;38.75;99640.69;4955518;29;20398;-79
2021/08/02 11:26:09;;;;;;;8.02;2.67;;;;;;;27.44;39.42;99656.28;4953139;29;20050;-79
2021/08/02 11:28:41;;;;;;;5.60;2.05;;;;;;;27.62;38.72;99658.41;4955847;29;20035;-80
2021/08/02 11:31:10;;;;;;;11.00;2.83;;;;;;;27.56;38.66;99653.84;4952261;28;20134;-84
2021/08/02 11:33:41;;;;;;;16.95;2.47;;;;;;;28.05;38.08;99653.56;4953147;28;20063;-85
2021/08/02 11:36:19;;;;;;;22.40;2.45;;;;;;;27.80;38.94;99665.88;4945848;28;20082;-88
2021/08/02 11:38:47;;;;;;;18.05;2.95;;;;;;;27.54;38.81;99661.22;4954439;28;20114;-88
2021/08/02 11:41:28;;;;;;;12.88;2.80;;;;;;;27.34;39.63;99666.53;4953988;28;20130;-88
2021/08/02 11:43:58;;;;;;;4.60;1.88;;;;;;;27.38;39.11;99667.78;4941040;28;20051;-89
2021/08/02 11:46:26;;;;;;;11.68;2.00;;;;;;;27.37;40.00;99660.78;4925339;28;20043;-86
2021/08/02 11:48:54;;;;;;;10.43;2.03;;;;;;;27.32;39.36;99665.88;4942492;28;20043;-87